Time;durP1;ratioP1;P1;durP2;ratioP2;P2;SDS_P1;SDS_P2;PMS_P1;PMS_P2;Temp;Humidity;BMP_temperature;BMP_pressure;BME280_temperature;BME280_humidity;BME280_pressure;Samples;Min_cycle;Max_cycle;Signal;HPM_P1;HPM_P2
2022/04/30 00:02:13;;;;;;;23.33;17.40;;;;;;;19.79;40.29;95483.69;5052312;28;21017;-55
2022/04/30 00:04:43;;;;;;;21.17;17.53;;;;;;;19.31;41.41;95498.44;5051855;28;20505;-54
2022/04/30 00:07:20;;;;;;;23.07;16.70;;;;;;;19.61;40.30;95464.13;5052024;28;20524;-58
2022/04/30 00:09:48;;;;;;;19.50;16.80;;;;;;;19.59;40.76;95474.25;5051254;28;20521;-53
2022/04/30 00:12:18;;;;;;;22.83;17.07;;;;;;;19.76;40.33;95468.34;5051897;28;20439;-58
2022/04/30 00:14:46;;;;;;;21.53;16.77;;;;;;;19.61;40.77;95481.94;5051513;28;20498;-58
2022/04/30 00:17:14;;;;;;;21.27;17.00;;;;;;;19.57;41.05;95476.44;5051367;28;20478;-57
2022/04/30 00:19:41;;;;;;;22.63;17.10;;;;;;;19.76;40.62;95473.66;5051133;28;20454;-54
2022/04/30 00:22:09;;;;;;;24.77;17.27;;;;;;;19.68;41.01;95471.69;5051625;28;20984;-57
2022/04/30 00:24:38;;;;;;;20.67;17.00;;;;;;;19.72;40.79;95470.81;5051447;28;20475;-57
2022/04/30 00:27:05;;;;;;;22.03;17.47;;;;;;;19.67;41.00;95475.44;5051814;28;20439;-57
2022/04/30 00:29:32;;;;;;;21.03;16.53;;;;;;;19.53;41.12;95478.09;5066588;28;20957;-62
2022/04/30 00:32:02;;;;;;;21.17;16.57;;;;;;;19.61;41.22;95487.25;5051310;28;20507;-61
2022/04/30 00:34:30;;;;;;;21.10;16.13;;;;;;;19.63;41.22;95480.56;5050361;28;20475;-58
2022/04/30 00:37:02;;;;;;;19.80;16.23;;;;;;;19.53;41.58;95486.06;5050876;28;20446;-53
2022/04/30 00:39:33;;;;;;;18.60;15.90;;;;;;;19.55;41.20;95485.78;5051278;28;20447;-55
2022/04/30 00:42:01;;;;;;;17.90;15.20;;;;;;;19.46;41.19;95485.69;5050939;28;20499;-53
2022/04/30 00:44:28;;;;;;;20.13;15.53;;;;;;;19.46;40.96;95483.03;5051354;28;21004;-58
2022/04/30 00:46:55;;;;;;;20.57;14.50;;;;;;;19.46;41.04;95480.38;5050743;28;20466;-56
2022/04/30 00:49:23;;;;;;;19.57;14.40;;;;;;;19.42;41.05;95478.59;5050832;28;20447;-55
2022/04/30 00:51:51;;;;;;;17.17;14.70;;;;;;;19.53;40.83;95477.31;5050704;28;20439;-56
2022/04/30 00:54:22;;;;;;;18.13;14.20;;;;;;;19.50;40.48;95476.06;5051100;28;21016;-60
2022/04/30 00:56:57;;;;;;;18.13;14.07;;;;;;;19.40;40.87;95480.75;5050274;28;20507;-56
2022/04/30 00:59:25;;;;;;;15.37;12.93;;;;;;;19.17;40.86;95477.19;5051025;28;20446;-54
2022/04/30 01:01:52;;;;;;;14.30;12.80;;;;;;;18.98;41.30;95474.63;5050764;28;20797;-58
2022/04/30 01:04:38;;;;;;;13.57;12.17;;;;;;;19.07;41.32;95462.22;5050640;28;20481;-57
2022/04/30 01:07:07;;;;;;;13.53;12.07;;;;;;;19.20;40.86;95464.13;5050016;28;20534;-60
2022/04/30 01:09:39;;;;;;;13.80;12.30;;;;;;;19.19;41.03;95470.53;5050844;28;20443;-55
2022/04/30 01:12:11;;;;;;;16.03;13.30;;;;;;;19.20;40.84;95477.41;5050673;28;20431;-54
2022/04/30 01:14:39;;;;;;;16.27;13.40;;;;;;;19.12;40.80;95474.66;5050405;28;20464;-57
2022/04/30 01:17:08;;;;;;;14.90;12.87;;;;;;;18.98;40.64;95477.28;5050582;28;20439;-54
2022/04/30 01:19:38;;;;;;;13.37;11.97;;;;;;;18.95;41.31;95453.97;5050114;28;20443;-63
2022/04/30 01:22:14;;;;;;;14.07;12.37;;;;;;;19.03;41.17;95465.78;5050537;28;20450;-52
2022/04/30 01:24:43;;;;;;;13.50;12.10;;;;;;;19.11;41.15;95455.25;5050290;28;20489;-58
2022/04/30 01:27:11;;;;;;;16.50;12.87;;;;;;;19.23;41.46;95469.91;5050053;28;22147;-57
2022/04/30 01:29:39;;;;;;;17.77;13.20;;;;;;;19.15;41.59;95466.88;5049982;28;20995;-58
2022/04/30 01:37:38;;;;;;;17.97;13.57;;;;;;;18.93;41.39;95465.97;5050056;28;20556;-55
2022/04/30 01:40:07;;;;;;;25.17;15.30;;;;;;;19.01;41.13;95463.41;5049532;28;20649;-58
2022/04/30 01:42:43;;;;;;;21.30;16.40;;;;;;;18.91;41.37;95468.13;5048924;28;20945;-53
2022/04/30 01:45:10;;;;;;;20.57;16.00;;;;;;;18.73;42.46;95467.13;5049786;28;20505;-57
2022/04/30 01:47:43;;;;;;;15.20;13.40;;;;;;;18.80;41.86;95462.19;5050173;28;20884;-51
2022/04/30 01:50:12;;;;;;;17.90;15.17;;;;;;;18.75;42.23;95462.31;5049532;28;21000;-55
2022/04/30 01:52:40;;;;;;;19.97;16.67;;;;;;;18.76;42.04;95465.72;5050289;28;20442;-53
2022/04/30 01:55:07;;;;;;;22.10;17.33;;;;;;;18.57;42.07;95463.16;5049724;28;20473;-57
2022/04/30 01:57:34;;;;;;;18.53;16.23;;;;;;;18.45;42.19;95470.75;5050347;28;20459;-54
2022/04/30 02:00:04;;;;;;;21.53;16.23;;;;;;;18.58;42.31;95470.03;5049143;28;20450;-59
2022/04/30 02:02:41;;;;;;;22.00;18.97;;;;;;;18.42;42.50;95460.75;5049658;28;20451;-59
2022/04/30 02:05:12;;;;;;;22.20;17.03;;;;;;;18.08;43.68;95470.81;5049381;28;20489;-52
2022/04/30 02:07:46;;;;;;;18.97;15.47;;;;;;;17.90;43.58;95455.69;5049719;28;20880;-55
2022/04/30 02:10:14;;;;;;;21.97;16.07;;;;;;;18.01;43.18;95470.38;5049552;28;20550;-62
2022/04/30 02:12:42;;;;;;;20.83;16.57;;;;;;;18.09;43.27;95472.38;5049800;28;20431;-58
2022/04/30 02:15:09;;;;;;;20.73;16.10;;;;;;;18.14;43.40;95474.94;5049095;28;20983;-60
2022/04/30 02:17:38;;;;;;;20.77;16.03;;;;;;;18.02;43.50;95471.94;5049372;28;20898;-56
2022/04/30 02:20:18;;;;;;;20.53;15.60;;;;;;;18.05;43.68;95466.84;5048968;28;20861;-53
2022/04/30 02:22:46;;;;;;;22.53;15.20;;;;;;;17.85;43.73;95471.66;5049556;28;20450;-58
2022/04/30 02:25:15;;;;;;;20.80;15.67;;;;;;;17.81;44.34;95470.66;5048633;28;20486;-54
2022/04/30 02:27:47;;;;;;;20.67;15.40;;;;;;;17.76;44.53;95462.75;5049520;28;20431;-53
2022/04/30 02:30:19;;;;;;;20.60;16.10;;;;;;;18.05;44.31;95455.44;5048788;28;20442;-60
2022/04/30 02:32:55;;;;;;;20.20;15.43;;;;;;;18.11;43.75;95459.59;5049460;28;20427;-62
2022/04/30 02:35:28;;;;;;;17.27;15.07;;;;;;;18.03;44.12;95454.94;5048827;28;20450;-57
2022/04/30 02:37:59;;;;;;;17.53;14.73;;;;;;;18.16;44.12;95446.25;5049892;28;20470;-59
2022/04/30 02:40:28;;;;;;;21.10;14.80;;;;;;;18.06;43.67;95462.34;5049027;28;20481;-57
2022/04/30 02:43:19;;;;;;;17.40;14.47;;;;;;;17.97;44.26;95442.84;5049418;28;20425;-58
2022/04/30 02:45:47;;;;;;;17.53;13.60;;;;;;;18.05;43.43;95466.06;5049135;28;20470;-56
2022/04/30 02:48:15;;;;;;;19.37;15.37;;;;;;;17.87;44.23;95458.91;5049662;28;20430;-51
2022/04/30 02:50:42;;;;;;;18.50;15.00;;;;;;;18.10;43.41;95460.69;5048861;28;20893;-58
2022/04/30 02:53:10;;;;;;;19.20;14.30;;;;;;;18.04;43.90;95448.56;5049409;28;20453;-63
2022/04/30 02:55:36;;;;;;;18.83;14.63;;;;;;;18.16;43.83;95435.66;5048638;28;21041;-58
2022/04/30 03:00:53;;;;;;;19.93;15.00;;;;;;;18.17;44.06;95447.84;5048846;28;20811;-58
2022/04/30 03:03:29;;;;;;;20.97;15.27;;;;;;;18.16;44.26;95457.66;5048947;28;20802;-58
2022/04/30 03:05:57;;;;;;;27.00;14.77;;;;;;;18.18;43.91;95444.09;5047349;28;20474;-55
2022/04/30 03:08:26;;;;;;;19.90;13.90;;;;;;;17.82;44.66;95451.81;5048948;28;20439;-61
2022/04/30 03:10:55;;;;;;;17.53;13.67;;;;;;;17.97;44.21;95450.81;5048448;28;20911;-62
2022/04/30 03:13:25;;;;;;;16.53;13.23;;;;;;;17.17;46.13;95452.59;5048688;28;20450;-59
2022/04/30 03:15:54;;;;;;;16.87;13.07;;;;;;;16.75;46.77;95442.75;5048812;28;20431;-59
2022/04/30 03:23:55;;;;;;;19.93;12.97;;;;;;;17.38;45.17;95445.22;5048684;28;20443;-58
2022/04/30 03:26:26;;;;;;;15.50;12.87;;;;;;;16.43;48.14;95447.00;5048711;28;20927;-57
2022/04/30 03:28:54;;;;;;;18.27;13.37;;;;;;;16.90;46.34;95453.19;5049237;28;20470;-56
2022/04/30 03:31:21;;;;;;;16.03;12.13;;;;;;;17.29;45.86;95442.41;5051761;28;20528;-61
2022/04/30 03:33:50;;;;;;;16.73;12.70;;;;;;;17.60;45.24;95456.09;5052721;28;20492;-54
2022/04/30 03:36:20;;;;;;;18.37;13.23;;;;;;;17.68;44.63;95458.13;5052278;28;20549;-56
2022/04/30 03:38:47;;;;;;;15.77;12.40;;;;;;;17.56;44.72;95452.44;5052530;28;20431;-57
2022/04/30 03:41:15;;;;;;;16.37;12.77;;;;;;;17.44;44.83;95459.97;5051729;28;20800;-54
2022/04/30 03:43:42;;;;;;;18.27;13.73;;;;;;;17.53;44.80;95464.41;5052416;28;20903;-59
2022/04/30 03:46:09;;;;;;;15.77;14.07;;;;;;;17.41;44.89;95457.91;5052354;28;20493;-59
2022/04/30 03:48:36;;;;;;;20.07;13.93;;;;;;;17.53;44.87;95458.31;5052306;28;20468;-56
2022/04/30 03:51:05;;;;;;;19.57;14.53;;;;;;;17.15;45.48;95475.97;5052207;28;20447;-62
2022/04/30 03:53:32;;;;;;;20.97;13.83;;;;;;;16.92;46.58;95474.88;5052430;28;20872;-61
2022/04/30 03:56:00;;;;;;;17.97;13.57;;;;;;;17.18;45.47;95472.75;5051562;28;20442;-58
2022/04/30 03:58:28;;;;;;;17.57;14.17;;;;;;;17.26;45.60;95473.97;5052398;28;20447;-57
2022/04/30 04:00:55;;;;;;;18.97;14.40;;;;;;;17.00;45.92;95476.13;5051603;28;20442;-53
2022/04/30 04:03:22;;;;;;;17.53;14.77;;;;;;;16.84;46.25;95472.81;5052129;28;20812;-56
2022/04/30 04:05:49;;;;;;;18.17;15.07;;;;;;;17.19;45.50;95483.03;5051789;28;20536;-57
2022/04/30 04:08:17;;;;;;;20.30;15.73;;;;;;;17.22;45.46;95482.47;5051999;28;20439;-61
2022/04/30 04:10:43;;;;;;;22.90;15.53;;;;;;;17.33;45.84;95479.72;5052056;28;20435;-59
2022/04/30 04:18:41;;;;;;;23.73;14.80;;;;;;;17.65;45.03;95483.31;5051586;28;20471;-57
2022/04/30 04:21:09;;;;;;;19.23;15.23;;;;;;;17.83;44.79;95474.59;5051448;28;20470;-58
2022/04/30 04:26:22;;;;;;;23.17;15.93;;;;;;;17.87;44.21;95480.09;5051246;28;20481;-60
2022/04/30 04:28:49;;;;;;;23.70;16.57;;;;;;;17.55;45.03;95483.47;5051593;28;20451;-57
2022/04/30 04:31:22;;;;;;;24.17;15.63;;;;;;;16.79;46.93;95486.13;5049663;28;20485;-60
2022/04/30 04:33:50;;;;;;;22.60;16.27;;;;;;;17.03;46.47;95480.84;5051590;28;20451;-50
2022/04/30 04:36:18;;;;;;;24.47;15.40;;;;;;;17.40;45.51;95480.97;5049678;28;20592;-54
2022/04/30 04:38:45;;;;;;;21.63;15.60;;;;;;;17.48;45.23;95477.69;5051592;28;20443;-55
2022/04/30 04:41:12;;;;;;;19.27;14.87;;;;;;;17.72;45.12;95472.34;5049396;28;20435;-60
2022/04/30 04:43:39;;;;;;;19.37;15.00;;;;;;;17.77;44.69;95474.97;5050809;28;20938;-57
2022/04/30 04:46:06;;;;;;;22.00;15.73;;;;;;;17.62;44.68;95459.25;5051022;28;20477;-57
2022/04/30 04:48:34;;;;;;;20.67;15.27;;;;;;;18.06;44.33;95473.72;5051853;28;20443;-58
2022/04/30 04:51:01;;;;;;;20.63;15.27;;;;;;;17.74;44.56;95476.31;5050676;28;20868;-56
2022/04/30 04:53:29;;;;;;;23.33;16.13;;;;;;;18.02;43.96;95478.03;5051277;28;20447;-57
2022/04/30 04:55:56;;;;;;;19.13;15.27;;;;;;;17.46;45.62;95485.13;5050435;28;20985;-59
2022/04/30 04:58:23;;;;;;;22.83;15.43;;;;;;;17.82;44.79;95482.84;5050569;28;20442;-54
2022/04/30 05:00:50;;;;;;;24.70;15.93;;;;;;;18.20;43.55;95484.41;5050294;28;20447;-61
2022/04/30 05:03:17;;;;;;;17.80;14.90;;;;;;;18.13;43.77;95490.09;5050770;28;20545;-64
2022/04/30 05:05:44;;;;;;;19.67;15.90;;;;;;;18.08;44.30;95494.66;5050633;28;20858;-59
2022/04/30 05:08:11;;;;;;;22.17;15.83;;;;;;;18.14;44.17;95496.16;5050801;28;20461;-54
2022/04/30 05:10:38;;;;;;;22.30;15.37;;;;;;;18.25;44.08;95497.59;5050415;28;20794;-57
2022/04/30 05:13:05;;;;;;;22.43;14.67;;;;;;;18.50;43.21;95499.91;5050611;28;20439;-58
2022/04/30 05:15:32;;;;;;;20.67;14.83;;;;;;;18.80;43.12;95493.28;5050066;28;20439;-51
2022/04/30 05:17:58;;;;;;;24.83;15.43;;;;;;;18.83;42.40;95493.47;5050745;28;20478;-56
2022/04/30 05:20:25;;;;;;;18.60;15.67;;;;;;;19.05;43.05;95500.78;5050297;28;20557;-56
2022/04/30 05:23:08;;;;;;;19.67;15.50;;;;;;;19.07;43.14;95488.78;5050398;28;20450;-56
2022/04/30 05:25:37;;;;;;;20.63;16.43;;;;;;;19.27;42.46;95502.81;5049932;28;20474;-57
2022/04/30 05:28:04;;;;;;;19.93;14.67;;;;;;;19.50;42.08;95496.53;5050229;28;20840;-57
2022/04/30 05:30:31;;;;;;;20.43;15.67;;;;;;;19.27;42.74;95498.25;5048281;28;20469;-54
2022/04/30 05:32:58;;;;;;;19.77;14.20;;;;;;;19.53;42.11;95493.25;5050278;28;20871;-53
2022/04/30 05:35:25;;;;;;;17.53;15.30;;;;;;;19.57;42.13;95475.63;5049754;28;20431;-56
2022/04/30 05:37:52;;;;;;;19.53;15.30;;;;;;;19.70;41.58;95490.78;5050695;28;20505;-62
2022/04/30 05:40:19;;;;;;;20.90;15.90;;;;;;;19.72;41.48;95491.28;5064531;28;20439;-55
2022/04/30 05:42:46;;;;;;;17.03;13.60;;;;;;;19.83;41.04;95484.66;5049946;28;20532;-63
2022/04/30 05:45:13;;;;;;;17.67;14.97;;;;;;;20.08;40.93;95492.09;5049701;28;20459;-58
2022/04/30 05:47:40;;;;;;;18.00;14.73;;;;;;;19.11;41.17;95500.41;5050044;28;20447;-58
2022/04/30 05:50:10;;;;;;;20.87;14.37;;;;;;;18.68;42.47;95506.22;5049242;28;20461;-60
2022/04/30 05:52:37;;;;;;;18.87;15.27;;;;;;;19.72;40.56;95499.25;5049661;28;20458;-57
2022/04/30 05:55:05;;;;;;;23.00;15.57;;;;;;;19.99;40.30;95489.38;5049538;28;20435;-55
2022/04/30 05:57:32;;;;;;;19.63;14.93;;;;;;;19.88;39.97;95495.19;5049830;28;20455;-60
2022/04/30 05:59:59;;;;;;;18.43;14.67;;;;;;;19.88;40.14;95498.66;5049094;28;21141;-60
2022/04/30 06:02:26;;;;;;;16.17;14.10;;;;;;;19.84;39.54;95475.59;5050049;28;20442;-56
2022/04/30 06:04:53;;;;;;;19.27;13.13;;;;;;;19.68;40.25;95503.59;5049171;28;20449;-56
2022/04/30 06:07:20;;;;;;;17.50;14.33;;;;;;;20.04;39.16;95499.09;5049620;28;20477;-52
2022/04/30 06:09:47;;;;;;;18.10;14.43;;;;;;;20.08;39.17;95502.72;5049383;28;20808;-63
2022/04/30 06:12:14;;;;;;;17.40;13.80;;;;;;;20.24;39.40;95500.56;5049309;28;20439;-52
2022/04/30 06:14:41;;;;;;;16.63;13.27;;;;;;;20.38;39.17;95504.75;5048899;28;20449;-55
2022/04/30 06:17:09;;;;;;;17.53;13.60;;;;;;;19.90;39.52;95501.00;5049356;28;20434;-54
2022/04/30 06:19:36;;;;;;;20.63;14.10;;;;;;;20.06;39.54;95504.91;5049011;28;20436;-55
2022/04/30 06:22:03;;;;;;;15.33;12.97;;;;;;;20.39;39.04;95500.97;5049083;28;20493;-61
2022/04/30 06:24:30;;;;;;;16.03;13.60;;;;;;;20.26;38.23;95504.47;5049771;28;20916;-53
2022/04/30 06:26:57;;;;;;;16.40;13.47;;;;;;;20.03;38.71;95502.84;5049023;28;20513;-54
2022/04/30 06:29:23;;;;;;;16.63;12.90;;;;;;;20.33;38.48;95504.84;5049126;28;20439;-55
2022/04/30 06:31:51;;;;;;;14.10;12.60;;;;;;;20.32;38.18;95497.16;5048785;28;20572;-54
2022/04/30 06:34:18;;;;;;;14.37;12.60;;;;;;;20.43;38.06;95509.94;5049986;28;20439;-58
2022/04/30 06:36:45;;;;;;;17.70;14.37;;;;;;;20.47;38.24;95505.59;5048894;28;20443;-56
2022/04/30 06:39:13;;;;;;;15.90;12.97;;;;;;;20.53;38.11;95509.69;5049339;28;20922;-55
2022/04/30 06:41:39;;;;;;;16.50;13.47;;;;;;;20.53;38.57;95503.59;5048294;28;20457;-55
2022/04/30 06:44:06;;;;;;;16.87;13.27;;;;;;;20.66;37.80;95508.06;5049202;28;20439;-60
2022/04/30 06:46:33;;;;;;;18.37;14.27;;;;;;;20.75;38.11;95500.91;5048748;28;20852;-55
2022/04/30 06:49:00;;;;;;;17.40;13.90;;;;;;;20.82;38.05;95491.41;5048299;28;20446;-60
2022/04/30 06:51:27;;;;;;;18.47;15.10;;;;;;;20.75;37.89;95499.03;5048539;28;20469;-62
2022/04/30 06:59:28;;;;;;;16.30;11.90;;;;;;;21.29;37.92;95497.94;5049051;28;20443;-60
2022/04/30 07:02:03;;;;;;;14.20;10.83;;;;;;;21.07;36.80;95482.81;5048639;28;20475;-60
2022/04/30 07:04:30;;;;;;;12.47;11.27;;;;;;;21.26;37.09;95489.78;5050451;28;20840;-58
2022/04/30 07:06:58;;;;;;;14.17;11.93;;;;;;;21.38;36.76;95489.97;5052221;28;21004;-58
2022/04/30 07:09:28;;;;;;;14.20;11.17;;;;;;;21.22;36.90;95488.81;5052741;28;20537;-52
2022/04/30 07:11:55;;;;;;;13.10;11.60;;;;;;;21.52;36.50;95487.97;5052092;28;20454;-60
2022/04/30 07:14:22;;;;;;;18.37;12.17;;;;;;;21.39;36.40;95483.53;5052979;28;20446;-59
2022/04/30 07:16:48;;;;;;;13.37;11.70;;;;;;;21.21;36.27;95487.22;5052349;28;20446;-60
2022/04/30 07:19:15;;;;;;;13.47;11.80;;;;;;;21.28;36.99;95492.91;5052874;28;20498;-58
2022/04/30 07:21:42;;;;;;;14.87;13.00;;;;;;;21.55;36.79;95487.38;5052121;28;20488;-62
2022/04/30 07:24:09;;;;;;;16.07;12.83;;;;;;;21.53;36.42;95485.00;5052766;28;20451;-59
2022/04/30 07:26:36;;;;;;;14.97;13.00;;;;;;;21.38;36.84;95484.63;5052267;28;20482;-61
2022/04/30 07:29:03;;;;;;;17.20;13.33;;;;;;;21.34;37.12;95481.00;5052900;28;20470;-52
2022/04/30 07:31:30;;;;;;;19.17;12.00;;;;;;;21.68;36.65;95481.91;5052180;28;20439;-54
2022/04/30 07:33:57;;;;;;;14.07;12.27;;;;;;;21.67;37.54;95469.66;5052322;28;20431;-60
2022/04/30 07:36:26;;;;;;;16.67;13.20;;;;;;;21.22;37.49;95472.81;5052361;28;20431;-52
2022/04/30 07:38:55;;;;;;;13.30;11.67;;;;;;;21.48;36.96;95479.00;5052912;28;20450;-55
2022/04/30 07:41:22;;;;;;;14.17;12.20;;;;;;;21.59;36.52;95472.31;5052168;28;20453;-56
2022/04/30 07:43:49;;;;;;;15.00;12.10;;;;;;;21.62;36.60;95477.03;5052571;28;20513;-59
2022/04/30 07:46:16;;;;;;;15.77;11.83;;;;;;;21.34;36.94;95471.16;5051597;28;20470;-61
2022/04/30 07:48:43;;;;;;;16.97;11.60;;;;;;;21.68;36.44;95455.22;5052581;28;21022;-57
2022/04/30 07:51:14;;;;;;;12.73;11.43;;;;;;;22.06;36.42;95468.81;5051716;28;20449;-53
2022/04/30 07:53:44;;;;;;;16.37;10.50;;;;;;;21.92;36.18;95470.81;5052241;28;20438;-59
2022/04/30 07:56:11;;;;;;;14.83;11.00;;;;;;;22.10;35.16;95472.41;5051774;28;20443;-56
2022/04/30 07:58:38;;;;;;;14.47;10.80;;;;;;;22.08;34.64;95467.38;5052441;28;20446;-57
2022/04/30 08:01:05;;;;;;;11.63;10.43;;;;;;;22.18;35.51;95463.63;5051526;28;20453;-57
2022/04/30 08:03:33;;;;;;;13.30;10.50;;;;;;;22.14;35.10;95468.03;5051854;28;21096;-57
2022/04/30 08:06:01;;;;;;;15.07;10.70;;;;;;;22.17;35.47;95462.84;5051482;28;20478;-60
2022/04/30 08:08:28;;;;;;;12.07;10.00;;;;;;;22.63;34.04;95448.84;5051672;28;20455;-55
2022/04/30 08:10:54;;;;;;;13.90;10.07;;;;;;;22.90;34.47;95458.38;5051131;28;21004;-60
2022/04/30 08:13:21;;;;;;;22.17;11.20;;;;;;;23.09;34.84;95451.56;5052249;28;20427;-55
2022/04/30 08:15:48;;;;;;;15.37;11.20;;;;;;;22.55;34.33;95452.34;5051194;28;20450;-59
2022/04/30 08:18:15;;;;;;;15.80;10.87;;;;;;;22.24;34.28;95446.38;5051789;28;21000;-58
2022/04/30 08:20:43;;;;;;;13.93;10.50;;;;;;;22.46;34.96;95450.75;5051423;28;20439;-57
2022/04/30 08:23:10;;;;;;;11.40;10.20;;;;;;;22.32;34.81;95455.44;5051669;28;20433;-56
2022/04/30 08:25:38;;;;;;;15.37;10.37;;;;;;;22.41;34.26;95449.00;5051171;28;20475;-53
2022/04/30 08:28:11;;;;;;;12.17;10.17;;;;;;;22.52;33.98;95438.78;5051687;28;20805;-56
2022/04/30 08:30:38;;;;;;;13.23;9.87;;;;;;;22.88;33.96;95445.31;5051187;28;20430;-61
2022/04/30 08:33:05;;;;;;;11.43;10.23;;;;;;;22.87;34.08;95443.75;5051754;28;20538;-53
2022/04/30 08:35:32;;;;;;;11.90;10.10;;;;;;;22.96;34.79;95447.19;5050912;28;20447;-55
2022/04/30 08:38:08;;;;;;;14.43;9.07;;;;;;;23.06;34.57;95436.13;5051817;28;21394;-55
2022/04/30 08:40:35;;;;;;;15.60;9.57;;;;;;;22.96;34.87;95447.19;5051091;28;20493;-58
2022/04/30 08:43:13;;;;;;;10.07;9.07;;;;;;;22.78;33.96;95440.34;5051048;28;20473;-56
2022/04/30 08:45:42;;;;;;;12.57;8.83;;;;;;;22.86;34.61;95442.19;5050346;28;20458;-56
2022/04/30 08:48:11;;;;;;;11.87;9.00;;;;;;;22.73;34.42;95443.19;5051126;28;20749;-56
2022/04/30 08:50:40;;;;;;;9.83;8.10;;;;;;;22.55;34.73;95449.66;5050594;28;20427;-59
2022/04/30 08:53:07;;;;;;;10.40;7.83;;;;;;;22.84;34.39;95444.41;5050953;28;20435;-49
2022/04/30 08:55:35;;;;;;;8.33;7.40;;;;;;;23.16;34.21;95434.25;5050864;28;20451;-54
2022/04/30 08:58:02;;;;;;;15.23;11.90;;;;;;;22.65;34.60;95430.63;5050944;28;20438;-53
2022/04/30 09:00:29;;;;;;;21.40;18.00;;;;;;;22.90;34.37;95443.13;5050861;28;20434;-60
2022/04/30 09:02:58;;;;;;;8.30;7.37;;;;;;;23.13;34.29;95441.78;5050746;28;20443;-59
2022/04/30 09:05:37;;;;;;;11.23;7.03;;;;;;;23.07;34.55;95432.38;5050351;28;20541;-53
2022/04/30 09:08:05;;;;;;;9.77;7.07;;;;;;;23.27;33.85;95430.88;5050547;28;21052;-52
2022/04/30 09:10:35;;;;;;;7.90;7.10;;;;;;;23.23;33.45;95434.53;5050645;28;20510;-59
2022/04/30 09:13:14;;;;;;;10.03;6.73;;;;;;;23.56;33.16;95425.53;5050577;28;20439;-58
2022/04/30 09:15:44;;;;;;;10.33;9.33;;;;;;;23.46;33.54;95435.84;5050397;28;20199;-56
2022/04/30 09:18:12;;;;;;;8.77;6.70;;;;;;;23.57;32.50;95429.00;5050209;28;20243;-57
2022/04/30 09:20:47;;;;;;;15.63;8.13;;;;;;;23.45;32.82;95427.03;5050245;28;20192;-59
2022/04/30 09:23:25;;;;;;;15.57;7.10;;;;;;;23.90;32.20;95419.19;5050718;28;20588;-59
2022/04/30 09:25:55;;;;;;;10.20;5.57;;;;;;;23.04;33.24;95424.22;5050314;28;20231;-58
2022/04/30 09:28:25;;;;;;;7.70;5.20;;;;;;;23.49;32.65;95424.47;5050102;28;20219;-59
2022/04/30 09:31:12;;;;;;;8.73;5.27;;;;;;;23.70;32.30;95419.97;5049839;28;20295;-61
2022/04/30 09:33:51;;;;;;;7.27;4.90;;;;;;;23.60;31.92;95414.97;5050249;28;20458;-59
2022/04/30 09:39:15;;;;;;;5.90;4.53;;;;;;;23.47;32.83;95418.66;5050441;28;20219;-55
2022/04/30 09:41:42;;;;;;;6.07;4.53;;;;;;;23.17;32.56;95398.38;5049306;28;20203;-58
2022/04/30 09:44:12;;;;;;;4.70;4.30;;;;;;;23.88;31.83;95402.69;5050157;28;20576;-56
2022/04/30 09:46:41;;;;;;;23.30;19.13;;;;;;;23.67;31.45;95401.88;5049588;28;20224;-55
2022/04/30 09:54:42;;;;;;;10.53;5.13;;;;;;;24.42;30.17;95396.25;5049408;28;20350;-59
2022/04/30 09:57:10;;;;;;;8.50;4.70;;;;;;;24.77;30.09;95385.97;5050138;28;20210;-57
2022/04/30 09:59:39;;;;;;;11.67;4.40;;;;;;;24.77;29.43;95392.13;5050036;28;20196;-54
2022/04/30 10:02:08;;;;;;;6.00;3.90;;;;;;;24.80;30.02;95379.94;5049943;28;20224;-57
2022/04/30 10:04:37;;;;;;;5.13;4.63;;;;;;;25.22;28.39;95380.53;5049613;28;20208;-56
2022/04/30 10:07:05;;;;;;;6.73;5.03;;;;;;;25.39;28.55;95374.97;5049560;28;20209;-59
2022/04/30 10:09:37;;;;;;;5.37;4.53;;;;;;;25.57;28.72;95360.19;5049863;28;20189;-57
2022/04/30 10:12:26;;;;;;;6.00;4.10;;;;;;;25.53;28.45;95370.81;5049224;28;20650;-56
2022/04/30 10:15:21;;;;;;;9.00;6.53;;;;;;;25.40;27.86;95365.81;5049017;28;20196;-57
2022/04/30 10:17:57;;;;;;;8.70;4.87;;;;;;;25.94;28.09;95356.28;5049081;28;20667;-61
2022/04/30 10:20:33;;;;;;;9.17;6.50;;;;;;;26.30;27.89;95350.78;5049418;28;20264;-57
2022/04/30 10:23:01;;;;;;;5.80;5.20;;;;;;;26.12;26.83;95349.53;5049273;28;20203;-60
2022/04/30 10:25:34;;;;;;;6.93;4.60;;;;;;;26.26;27.90;95341.84;5049236;28;20197;-57
2022/04/30 10:28:05;;;;;;;7.23;4.10;;;;;;;26.12;27.34;95349.53;5049801;28;20327;-58
2022/04/30 10:30:34;;;;;;;5.93;4.90;;;;;;;25.99;27.19;95350.66;5049112;28;20210;-56
2022/04/30 10:33:03;;;;;;;5.30;4.43;;;;;;;26.06;27.47;95348.19;5049173;28;20206;-53
2022/04/30 10:35:34;;;;;;;9.50;4.23;;;;;;;26.33;28.31;95343.97;5047869;28;20610;-56
2022/04/30 10:38:21;;;;;;;6.40;5.20;;;;;;;26.03;27.23;95346.19;5049805;28;20204;-54
2022/04/30 10:40:50;;;;;;;5.37;4.40;;;;;;;25.64;28.84;95350.44;5048982;28;20283;-56
2022/04/30 10:43:35;;;;;;;5.07;4.07;;;;;;;25.92;28.01;95345.09;5049041;28;20557;-55
2022/04/30 10:46:05;;;;;;;6.63;4.50;;;;;;;26.14;28.03;95336.53;5048664;28;20260;-60
2022/04/30 10:48:35;;;;;;;6.43;4.93;;;;;;;26.44;27.78;95343.09;5049194;28;20762;-54
2022/04/30 10:51:08;;;;;;;4.37;3.93;;;;;;;26.31;26.68;95328.19;5048812;28;20196;-53
2022/04/30 10:53:38;;;;;;;13.67;9.50;;;;;;;26.27;28.18;95337.25;5049143;28;20223;-58
2022/04/30 10:56:06;;;;;;;8.93;5.50;;;;;;;26.76;26.73;95320.53;5048511;28;20288;-58
2022/04/30 10:58:36;;;;;;;17.97;12.73;;;;;;;27.03;27.61;95330.41;5049124;28;20184;-53
2022/04/30 11:01:11;;;;;;;15.37;9.53;;;;;;;27.09;26.49;95340.91;5048802;28;20574;-56
2022/04/30 11:03:38;;;;;;;11.67;10.57;;;;;;;26.44;26.66;95335.03;5048910;28;20294;-56
2022/04/30 11:06:05;;;;;;;79.43;69.23;;;;;;;26.59;27.95;95331.59;5048696;28;20225;-53
2022/04/30 11:08:32;;;;;;;27.37;24.40;;;;;;;26.54;27.37;95339.91;5049107;28;20578;-52
2022/04/30 11:10:59;;;;;;;9.43;4.67;;;;;;;27.29;26.86;95332.53;5048702;28;20200;-56
2022/04/30 11:13:26;;;;;;;7.03;4.50;;;;;;;27.16;25.54;95327.59;5048794;28;20262;-56
2022/04/30 11:15:58;;;;;;;4.93;3.70;;;;;;;26.98;26.48;95328.00;5048655;28;20189;-55
2022/04/30 11:18:25;;;;;;;5.17;4.10;;;;;;;26.96;25.57;95324.88;5048853;28;20328;-52
2022/04/30 11:21:01;;;;;;;4.40;4.00;;;;;;;26.47;26.55;95326.28;5048358;28;20216;-57
2022/04/30 11:23:28;;;;;;;5.97;4.27;;;;;;;26.31;26.12;95325.50;5048817;28;20206;-56
2022/04/30 11:25:55;;;;;;;6.60;3.70;;;;;;;26.66;25.83;95323.69;5048296;28;20184;-58
2022/04/30 11:28:28;;;;;;;4.37;3.17;;;;;;;27.08;25.99;95320.50;5048438;28;20274;-58
2022/04/30 11:31:00;;;;;;;6.73;3.73;;;;;;;26.11;26.09;95320.34;5048476;28;20200;-54
2022/04/30 11:33:37;;;;;;;6.50;3.57;;;;;;;25.77;26.30;95318.97;5048546;28;20211;-57
2022/04/30 11:36:04;;;;;;;5.20;3.40;;;;;;;25.27;27.93;95310.56;5048407;28;20562;-50
2022/04/30 11:38:31;;;;;;;5.93;4.30;;;;;;;25.24;28.06;95320.06;5047409;28;20196;-62
2022/04/30 11:41:03;;;;;;;6.17;4.00;;;;;;;25.01;28.29;95306.34;5048254;28;20671;-54
2022/04/30 11:43:30;;;;;;;8.23;3.90;;;;;;;24.96;28.34;95319.97;5048737;28;20223;-60
2022/04/30 11:46:03;;;;;;;7.67;3.70;;;;;;;25.20;28.19;95318.41;5048603;28;20204;-52
2022/04/30 11:48:38;;;;;;;123.33;110.00;;;;;;;25.46;28.81;95316.13;5048680;28;20288;-59
2022/04/30 11:51:09;;;;;;;54.30;46.17;;;;;;;25.23;28.72;95310.47;5050668;28;20300;-58
2022/04/30 11:53:37;;;;;;;14.43;12.93;;;;;;;25.36;27.92;95321.97;5052184;28;20258;-54
2022/04/30 11:56:05;;;;;;;23.73;15.53;;;;;;;25.25;28.99;95318.16;5051858;28;20304;-61
2022/04/30 11:58:42;;;;;;;8.53;5.13;;;;;;;25.53;28.62;95322.50;5051769;28;20187;-56
2022/04/30 12:01:23;;;;;;;83.80;70.90;;;;;;;25.77;28.39;95313.59;5051784;28;20663;-54
2022/04/30 12:04:05;;;;;;;18.63;16.63;;;;;;;26.07;27.81;95309.50;5051816;28;20215;-61
2022/04/30 12:06:32;;;;;;;4.73;3.23;;;;;;;26.26;27.82;95312.28;5051267;28;20242;-61
2022/04/30 12:08:59;;;;;;;6.40;3.90;;;;;;;26.09;27.67;95312.63;5052023;28;20254;-59